Time;durP1;ratioP1;P1;durP2;ratioP2;P2;SDS_P1;SDS_P2;PMS_P1;PMS_P2;Temp;Humidity;BMP_temperature;BMP_pressure;BME280_temperature;BME280_humidity;BME280_pressure;Samples;Min_cycle;Max_cycle;Signal;HPM_P1;HPM_P2
2022/06/11 00:00:14;;;;;;;14.25;6.43;;;;;;;;;;10423988;28;20036;-74
2022/06/11 00:05:18;;;;;;;13.85;5.85;;;;;;;;;;10409450;28;20029;-74
2022/06/11 00:10:22;;;;;;;11.85;5.63;;;;;;;;;;10420223;28;20055;-74
2022/06/11 00:15:25;;;;;;;9.20;4.65;;;;;;;;;;10417780;28;20036;-75
2022/06/11 00:20:29;;;;;;;12.23;5.00;;;;;;;;;;10407785;28;20265;-74
2022/06/11 00:25:34;;;;;;;9.00;4.45;;;;;;;;;;10418419;28;20112;-76
2022/06/11 00:30:37;;;;;;;9.65;4.22;;;;;;;;;;10425353;28;20037;-76
2022/06/11 00:35:41;;;;;;;11.67;5.30;;;;;;;;;;10403747;28;20041;-75
2022/06/11 00:40:46;;;;;;;11.70;4.43;;;;;;;;;;10421441;28;20321;-75
2022/06/11 00:45:52;;;;;;;10.68;4.45;;;;;;;;;;10412522;28;20081;-74
2022/06/11 00:50:59;;;;;;;9.38;4.95;;;;;;;;;;10392964;28;20126;-75
2022/06/11 00:56:03;;;;;;;11.90;5.38;;;;;;;;;;10416309;28;20523;-77
2022/06/11 01:01:06;;;;;;;10.30;5.05;;;;;;;;;;10405494;28;20065;-73
2022/06/11 01:06:15;;;;;;;12.50;4.70;;;;;;;;;;10427588;28;20588;-75
2022/06/11 01:11:24;;;;;;;9.90;4.90;;;;;;;;;;10408707;28;20596;-75
2022/06/11 01:16:42;;;;;;;10.25;4.35;;;;;;;;;;10400053;28;20041;-74
2022/06/11 01:21:52;;;;;;;10.23;5.05;;;;;;;;;;10425895;28;20141;-75
2022/06/11 01:27:15;;;;;;;10.23;5.05;;;;;;;;;;10425227;28;20511;-75
2022/06/11 01:32:21;;;;;;;10.82;5.40;;;;;;;;;;10402148;28;20517;-73
2022/06/11 01:37:28;;;;;;;11.65;5.05;;;;;;;;;;10436815;28;20094;-76
2022/06/11 01:42:33;;;;;;;9.77;4.90;;;;;;;;;;10412237;28;20041;-75
2022/06/11 01:47:38;;;;;;;11.65;4.85;;;;;;;;;;10417005;28;20049;-73
2022/06/11 01:52:55;;;;;;;7.45;3.67;;;;;;;;;;10417045;28;20382;-75
2022/06/11 01:58:12;;;;;;;8.40;3.58;;;;;;;;;;10417598;28;20536;-74
2022/06/11 02:03:24;;;;;;;7.88;3.38;;;;;;;;;;10413576;28;20417;-75
2022/06/11 02:08:30;;;;;;;5.03;2.70;;;;;;;;;;10417889;28;20052;-75
2022/06/11 02:13:35;;;;;;;6.63;3.30;;;;;;;;;;10423916;28;20041;-75
2022/06/11 02:18:41;;;;;;;6.82;3.47;;;;;;;;;;10418286;28;20473;-75
2022/06/11 02:23:47;;;;;;;6.30;3.25;;;;;;;;;;10421279;28;20045;-76
2022/06/11 02:28:51;;;;;;;6.47;3.15;;;;;;;;;;10411393;28;20080;-75
2022/06/11 02:33:55;;;;;;;6.60;4.07;;;;;;;;;;10424748;28;20128;-75
2022/06/11 02:39:02;;;;;;;6.28;3.50;;;;;;;;;;10416605;28;20037;-73
2022/06/11 02:44:04;;;;;;;6.72;3.35;;;;;;;;;;10428333;28;20125;-76
2022/06/11 02:49:11;;;;;;;7.38;3.42;;;;;;;;;;10420249;28;20032;-75
2022/06/11 02:54:14;;;;;;;6.50;3.00;;;;;;;;;;10423008;28;20378;-75
2022/06/11 02:59:17;;;;;;;8.13;3.47;;;;;;;;;;10394913;28;20128;-74
2022/06/11 03:04:22;;;;;;;6.23;3.20;;;;;;;;;;10406122;28;20041;-75
2022/06/11 03:09:26;;;;;;;8.32;3.70;;;;;;;;;;10393527;28;20091;-74
2022/06/11 03:14:29;;;;;;;10.88;3.60;;;;;;;;;;10421186;28;20038;-76
2022/06/11 03:19:33;;;;;;;8.93;3.30;;;;;;;;;;10384112;28;20049;-75
2022/06/11 03:24:36;;;;;;;7.55;3.60;;;;;;;;;;10428350;28;20075;-73
2022/06/11 03:29:39;;;;;;;6.50;3.47;;;;;;;;;;10412726;28;20076;-73
2022/06/11 03:34:43;;;;;;;8.07;3.30;;;;;;;;;;10419755;28;20517;-77
2022/06/11 03:39:46;;;;;;;6.60;3.55;;;;;;;;;;10400280;28;20037;-74
2022/06/11 03:44:49;;;;;;;7.27;3.40;;;;;;;;;;10423618;28;20111;-75
2022/06/11 03:49:54;;;;;;;7.07;3.22;;;;;;;;;;10431454;28;20509;-76
2022/06/11 03:54:56;;;;;;;5.90;3.45;;;;;;;;;;10401759;28;20046;-75
2022/06/11 03:59:59;;;;;;;5.20;3.08;;;;;;;;;;10401269;28;20255;-75
2022/06/11 04:05:04;;;;;;;7.43;3.15;;;;;;;;;;10415409;28;20033;-76
2022/06/11 04:10:07;;;;;;;6.82;3.05;;;;;;;;;;10412493;28;20041;-76
2022/06/11 04:15:10;;;;;;;8.50;2.80;;;;;;;;;;10417262;28;20126;-76
2022/06/11 04:20:35;;;;;;;4.00;2.35;;;;;;;;;;10432967;28;20499;-73
2022/06/11 04:25:57;;;;;;;4.90;2.35;;;;;;;;;;10411682;28;20060;-75
2022/06/11 04:31:20;;;;;;;5.82;2.83;;;;;;;;;;10420307;28;20052;-76
2022/06/11 04:36:46;;;;;;;7.32;3.00;;;;;;;;;;10420326;28;20045;-75
2022/06/11 04:42:11;;;;;;;4.20;2.50;;;;;;;;;;10423267;28;20060;-76
2022/06/11 04:47:33;;;;;;;6.13;2.95;;;;;;;;;;10422511;28;20041;-76
2022/06/11 04:52:57;;;;;;;5.95;2.80;;;;;;;;;;10420911;28;20065;-76
2022/06/11 04:58:21;;;;;;;4.35;2.47;;;;;;;;;;10426597;28;20045;-74
2022/06/11 05:03:43;;;;;;;4.32;1.58;;;;;;;;;;10422295;28;20045;-76
2022/06/11 05:09:08;;;;;;;6.05;2.83;;;;;;;;;;10413515;28;20122;-76
2022/06/11 05:14:31;;;;;;;2.50;1.48;;;;;;;;;;10425355;28;20084;-76
2022/06/11 05:19:54;;;;;;;4.10;2.40;;;;;;;;;;10439945;28;20050;-75
2022/06/11 05:25:19;;;;;;;4.40;2.10;;;;;;;;;;10431560;28;20041;-73
2022/06/11 05:30:42;;;;;;;3.63;2.03;;;;;;;;;;10443167;28;20045;-73
2022/06/11 05:36:06;;;;;;;3.73;2.10;;;;;;;;;;10436965;28;20045;-75
2022/06/11 05:41:30;;;;;;;2.45;1.55;;;;;;;;;;10414236;28;20365;-73
2022/06/11 05:46:52;;;;;;;;;;;;;;;;;;10431750;28;20415;-73
2022/06/11 05:52:16;;;;;;;3.67;2.30;;;;;;;;;;10435560;28;20384;-74
2022/06/11 05:57:40;;;;;;;4.95;2.45;;;;;;;;;;10428887;28;20049;-74
2022/06/11 06:03:03;;;;;;;5.50;2.40;;;;;;;;;;10437291;28;20049;-73
2022/06/11 06:08:27;;;;;;;5.97;3.05;;;;;;;;;;10436206;28;20041;-73
2022/06/11 06:13:51;;;;;;;4.43;2.27;;;;;;;;;;10429845;28;20041;-73
2022/06/11 06:19:14;;;;;;;6.35;2.90;;;;;;;;;;10428334;28;20048;-73
2022/06/11 06:24:37;;;;;;;4.95;2.70;;;;;;;;;;10435369;28;20052;-73
2022/06/11 06:30:01;;;;;;;5.68;2.55;;;;;;;;;;10432977;28;20437;-72
2022/06/11 06:35:23;;;;;;;;;;;;;;;;;;10429595;28;20049;-72
2022/06/11 06:40:46;;;;;;;3.40;2.17;;;;;;;;;;10427075;28;19921;-75
2022/06/11 06:46:14;;;;;;;4.07;2.45;;;;;;;;;;10430508;28;20132;-73
2022/06/11 06:51:36;;;;;;;5.20;2.20;;;;;;;;;;10436767;28;20056;-75
2022/06/11 06:56:59;;;;;;;5.25;2.13;;;;;;;;;;10416598;28;20045;-73
2022/06/11 07:02:24;;;;;;;5.47;2.87;;;;;;;;;;10424939;28;20091;-75
2022/06/11 07:07:47;;;;;;;4.20;2.58;;;;;;;;;;10436477;28;20052;-71
2022/06/11 07:12:50;;;;;;;2.95;2.13;;;;;;;;;;10426758;28;20056;-73
2022/06/11 07:17:56;;;;;;;3.70;2.35;;;;;;;;;;10434353;28;20083;-74
2022/06/11 07:23:01;;;;;;;4.47;2.45;;;;;;;;;;10413808;28;20135;-75
2022/06/11 07:28:07;;;;;;;5.10;2.50;;;;;;;;;;10426312;28;20078;-73
2022/06/11 07:33:13;;;;;;;6.57;2.38;;;;;;;;;;10404160;28;20573;-73
2022/06/11 07:38:17;;;;;;;4.88;2.40;;;;;;;;;;10409794;28;20145;-73
2022/06/11 07:43:21;;;;;;;4.78;2.60;;;;;;;;;;10428950;28;20048;-74
2022/06/11 07:48:25;;;;;;;3.63;2.30;;;;;;;;;;10413669;28;20071;-74
2022/06/11 07:53:28;;;;;;;3.50;2.58;;;;;;;;;;10422909;28;20037;-73
2022/06/11 07:58:32;;;;;;;3.80;2.50;;;;;;;;;;10425251;28;20033;-74
2022/06/11 08:03:38;;;;;;;4.75;2.55;;;;;;;;;;10401722;28;20068;-73
2022/06/11 08:08:41;;;;;;;5.07;2.90;;;;;;;;;;10421598;28;20053;-72
2022/06/11 08:13:46;;;;;;;2.53;2.30;;;;;;;;;;10420297;28;20049;-73
2022/06/11 08:18:50;;;;;;;3.85;2.78;;;;;;;;;;10417637;28;20135;-72
2022/06/11 08:23:54;;;;;;;4.20;2.88;;;;;;;;;;10416134;28;20477;-71
2022/06/11 08:28:57;;;;;;;4.05;2.75;;;;;;;;;;10411258;28;20044;-70
2022/06/11 08:34:01;;;;;;;3.33;2.55;;;;;;;;;;10427229;28;20533;-73
2022/06/11 08:39:05;;;;;;;2.10;2.00;;;;;;;;;;10418098;28;20493;-74
2022/06/11 08:44:10;;;;;;;4.72;2.20;;;;;;;;;;10437853;28;20484;-73
2022/06/11 08:49:19;;;;;;;2.88;2.50;;;;;;;;;;10438054;28;20045;-72
2022/06/11 08:54:24;;;;;;;3.53;2.60;;;;;;;;;;10431175;28;20553;-73
2022/06/11 08:59:35;;;;;;;3.47;2.55;;;;;;;;;;10423165;28;20033;-73
2022/06/11 09:04:51;;;;;;;3.60;2.50;;;;;;;;;;10411873;28;20045;-70
2022/06/11 09:10:01;;;;;;;4.82;2.78;;;;;;;;;;10433422;28;20034;-72
2022/06/11 09:15:14;;;;;;;2.97;2.67;;;;;;;;;;10435315;28;20032;-73
2022/06/11 09:20:28;;;;;;;4.63;2.80;;;;;;;;;;10415019;28;20041;-75
2022/06/11 09:25:38;;;;;;;4.07;2.65;;;;;;;;;;10436996;28;20202;-76
2022/06/11 09:30:43;;;;;;;5.30;2.95;;;;;;;;;;10431756;28;20037;-76
2022/06/11 09:35:51;;;;;;;3.38;2.30;;;;;;;;;;10404942;28;20057;-77
2022/06/11 09:40:58;;;;;;;3.15;2.70;;;;;;;;;;10424391;28;20039;-77
2022/06/11 09:46:05;;;;;;;4.72;2.97;;;;;;;;;;10437159;28;20405;-76
2022/06/11 09:51:13;;;;;;;3.85;3.25;;;;;;;;;;10417877;28;20079;-77
2022/06/11 09:56:21;;;;;;;4.93;2.35;;;;;;;;;;10420828;28;20033;-76
2022/06/11 10:01:28;;;;;;;4.15;2.53;;;;;;;;;;10435196;28;20056;-76
2022/06/11 10:06:37;;;;;;;3.78;1.90;;;;;;;;;;10437269;28;20037;-76
2022/06/11 10:11:44;;;;;;;4.97;2.60;;;;;;;;;;10420355;28;20068;-75
2022/06/11 10:16:48;;;;;;;5.00;2.50;;;;;;;;;;10419827;28;20037;-78
2022/06/11 10:21:56;;;;;;;5.05;2.90;;;;;;;;;;10411026;28;20065;-76
2022/06/11 10:27:01;;;;;;;5.60;2.30;;;;;;;;;;10411541;28;20153;-77
2022/06/11 10:32:08;;;;;;;3.78;2.55;;;;;;;;;;10432285;28;20040;-77
2022/06/11 10:37:20;;;;;;;3.25;2.50;;;;;;;;;;10404180;28;20175;-76
2022/06/11 10:42:29;;;;;;;4.13;2.40;;;;;;;;;;10415898;28;20477;-76
2022/06/11 10:47:35;;;;;;;5.43;4.10;;;;;;;;;;10423805;28;20080;-76
2022/06/11 10:52:41;;;;;;;2.50;2.30;;;;;;;;;;10406867;28;20037;-76
2022/06/11 10:57:45;;;;;;;4.97;2.75;;;;;;;;;;10390618;28;20042;-77
2022/06/11 11:02:49;;;;;;;3.65;2.72;;;;;;;;;;10406677;28;20060;-77
2022/06/11 11:07:58;;;;;;;2.78;2.40;;;;;;;;;;10424666;28;20042;-73
2022/06/11 11:13:02;;;;;;;4.13;2.70;;;;;;;;;;10381376;28;20361;-77
2022/06/11 11:18:10;;;;;;;5.50;2.80;;;;;;;;;;10406604;28;20496;-74
2022/06/11 11:23:17;;;;;;;4.43;2.65;;;;;;;;;;10402616;28;20088;-75
2022/06/11 11:28:23;;;;;;;2.42;1.98;;;;;;;;;;10413369;28;20037;-75
2022/06/11 11:33:27;;;;;;;2.47;2.10;;;;;;;;;;10424511;28;20037;-76
2022/06/11 11:38:31;;;;;;;3.63;3.17;;;;;;;;;;10438741;28;20106;-76
2022/06/11 11:43:35;;;;;;;5.50;2.40;;;;;;;;;;10454662;28;20162;-76
2022/06/11 11:48:44;;;;;;;3.13;2.65;;;;;;;;;;10426330;28;20048;-74
2022/06/11 11:53:50;;;;;;;2.80;2.50;;;;;;;;;;10425275;28;20512;-76
2022/06/11 11:58:55;;;;;;;3.75;2.72;;;;;;;;;;10433383;28;20041;-76
2022/06/11 12:04:03;;;;;;;4.13;3.10;;;;;;;;;;10418257;28;20055;-75
2022/06/11 12:09:20;;;;;;;4.93;1.88;;;;;;;;;;10432937;28;20405;-76
2022/06/11 12:14:32;;;;;;;3.50;2.45;;;;;;;;;;10431519;28;20038;-76
2022/06/11 12:19:36;;;;;;;3.13;2.20;;;;;;;;;;10425501;28;20033;-75
2022/06/11 12:24:41;;;;;;;5.93;3.78;;;;;;;;;;10427831;28;20152;-74
2022/06/11 12:29:46;;;;;;;4.43;2.10;;;;;;;;;;10432446;28;20033;-76
2022/06/11 12:34:49;;;;;;;2.38;1.95;;;;;;;;;;10433792;28;20053;-77
2022/06/11 12:40:01;;;;;;;3.90;2.15;;;;;;;;;;10432920;28;20048;-76
2022/06/11 12:45:10;;;;;;;3.00;2.25;;;;;;;;;;10426050;28;20037;-76
2022/06/11 12:50:21;;;;;;;3.60;2.08;;;;;;;;;;10433893;28;20037;-76
2022/06/11 12:55:43;;;;;;;3.00;2.08;;;;;;;;;;10408629;28;20048;-76
2022/06/11 13:00:48;;;;;;;3.50;2.15;;;;;;;;;;10426908;28;20037;-76
2022/06/11 13:06:09;;;;;;;2.78;2.33;;;;;;;;;;10428395;28;20520;-76
2022/06/11 13:11:18;;;;;;;3.28;2.22;;;;;;;;;;10430064;28;20059;-76
2022/06/11 13:16:24;;;;;;;2.53;1.65;;;;;;;;;;10414469;28;20065;-75
2022/06/11 13:21:31;;;;;;;3.35;2.17;;;;;;;;;;10415613;28;20412;-74
2022/06/11 13:26:40;;;;;;;2.55;1.70;;;;;;;;;;10433638;28;20048;-76
2022/06/11 13:31:47;;;;;;;3.72;1.90;;;;;;;;;;10438049;28;20501;-76
2022/06/11 13:36:55;;;;;;;2.50;1.65;;;;;;;;;;10418064;28;20064;-76
2022/06/11 13:42:03;;;;;;;4.50;3.33;;;;;;;;;;10417455;28;20073;-76
2022/06/11 13:47:16;;;;;;;3.58;1.80;;;;;;;;;;10418900;28;20464;-76
2022/06/11 13:55:10;;;;;;;4.03;2.00;;;;;;;;;;10419119;28;20485;-75
2022/06/11 13:57:53;;;;;;;3.17;1.90;;;;;;;;;;10422874;28;20037;-77
2022/06/11 14:03:17;;;;;;;2.42;1.83;;;;;;;;;;10428562;28;20052;-75
2022/06/11 14:08:21;;;;;;;6.05;1.92;;;;;;;;;;10385616;28;20134;-76
2022/06/11 14:13:42;;;;;;;3.65;1.70;;;;;;;;;;10433373;28;20041;-77
2022/06/11 14:18:47;;;;;;;6.65;1.90;;;;;;;;;;10434204;28;20440;-78
2022/06/11 14:23:51;;;;;;;2.42;1.60;;;;;;;;;;10437735;28;20029;-76
2022/06/11 14:28:59;;;;;;;3.35;1.65;;;;;;;;;;10434328;28;20321;-77
2022/06/11 14:34:11;;;;;;;5.00;2.55;;;;;;;;;;10435808;28;20041;-77
2022/06/11 14:39:28;;;;;;;3.17;1.70;;;;;;;;;;10437254;28;20029;-76
2022/06/11 14:44:31;;;;;;;2.80;1.90;;;;;;;;;;10419489;28;20060;-77
2022/06/11 14:49:51;;;;;;;9.63;5.47;;;;;;;;;;10432283;28;20131;-76
2022/06/11 14:55:00;;;;;;;3.83;2.33;;;;;;;;;;10428254;28;20040;-76
2022/06/11 15:00:22;;;;;;;2.95;1.70;;;;;;;;;;10436967;28;20037;-77
2022/06/11 15:05:31;;;;;;;3.60;1.80;;;;;;;;;;10413319;28;20067;-76
2022/06/11 15:10:37;;;;;;;3.15;1.60;;;;;;;;;;10438766;28;20029;-76
2022/06/11 15:15:49;;;;;;;3.38;2.10;;;;;;;;;;10430340;28;20075;-76
2022/06/11 15:20:54;;;;;;;2.42;1.67;;;;;;;;;;10433454;28;20498;-76
2022/06/11 15:25:58;;;;;;;3.50;1.85;;;;;;;;;;10415703;28;20083;-76
2022/06/11 15:31:07;;;;;;;1.88;1.40;;;;;;;;;;10418288;28;20083;-73
2022/06/11 15:36:12;;;;;;;3.88;2.30;;;;;;;;;;10424980;28;20489;-76
2022/06/11 15:41:17;;;;;;;3.85;1.92;;;;;;;;;;10420120;28;20368;-78
2022/06/11 15:46:28;;;;;;;3.85;1.70;;;;;;;;;;10430968;28;20094;-74
2022/06/11 15:51:34;;;;;;;1.67;1.48;;;;;;;;;;10430451;28;20033;-74
2022/06/11 15:56:37;;;;;;;4.07;2.42;;;;;;;;;;10413220;28;20129;-76
2022/06/11 16:01:43;;;;;;;2.78;1.90;;;;;;;;;;10407892;28;20075;-76
2022/06/11 16:06:57;;;;;;;8.82;4.45;;;;;;;;;;10402803;28;20282;-75
2022/06/11 16:12:03;;;;;;;2.28;1.60;;;;;;;;;;10411398;28;20120;-75
2022/06/11 16:17:08;;;;;;;3.50;2.15;;;;;;;;;;10413361;28;20037;-73
2022/06/11 16:22:18;;;;;;;1.85;1.55;;;;;;;;;;10412115;28;20110;-75
2022/06/11 16:27:23;;;;;;;3.03;1.58;;;;;;;;;;10433424;28;20551;-76
2022/06/11 16:32:25;;;;;;;2.58;1.55;;;;;;;;;;10434231;28;20033;-77
2022/06/11 16:37:28;;;;;;;;;;;;;;;;;;10416228;28;20095;-77
2022/06/11 16:42:48;;;;;;;2.85;1.60;;;;;;;;;;10431018;28;20015;-74
2022/06/11 16:47:55;;;;;;;3.25;1.60;;;;;;;;;;10432667;28;20087;-76
2022/06/11 16:58:35;;;;;;;3.88;1.75;;;;;;;;;;10422916;28;20041;-76
2022/06/11 17:03:43;;;;;;;3.72;1.90;;;;;;;;;;10426778;28;20041;-77
2022/06/11 17:08:47;;;;;;;2.60;1.90;;;;;;;;;;10419285;28;20403;-77
2022/06/11 17:13:50;;;;;;;;;;;;;;;;;;10418707;28;20187;-75
2022/06/11 17:18:56;;;;;;;1.80;1.65;;;;;;;;;;10438800;28;20043;-74
2022/06/11 17:24:00;;;;;;;5.43;3.08;;;;;;;;;;10435669;28;20497;-76
2022/06/11 17:29:03;;;;;;;3.40;1.73;;;;;;;;;;10440367;28;20044;-77
2022/06/11 17:34:09;;;;;;;2.13;1.80;;;;;;;;;;10423001;28;20128;-75
2022/06/11 17:39:14;;;;;;;3.22;1.80;;;;;;;;;;10434384;28;20079;-75
2022/06/11 17:44:22;;;;;;;2.55;1.80;;;;;;;;;;10440221;28;20071;-74
2022/06/11 17:49:27;;;;;;;4.28;2.17;;;;;;;;;;10422706;28;20118;-76
2022/06/11 17:54:31;;;;;;;3.55;2.35;;;;;;;;;;10418244;28;20151;-76
2022/06/11 17:59:35;;;;;;;2.97;2.30;;;;;;;;;;10417601;28;20041;-78
2022/06/11 18:04:40;;;;;;;3.78;2.38;;;;;;;;;;10437767;28;20524;-75
2022/06/11 18:09:43;;;;;;;5.43;2.55;;;;;;;;;;10438156;28;20039;-76
2022/06/11 18:14:45;;;;;;;5.20;3.00;;;;;;;;;;10421994;28;20168;-78
2022/06/11 18:19:49;;;;;;;4.88;2.50;;;;;;;;;;10435615;28;20033;-77
2022/06/11 18:30:20;;;;;;;2.28;2.03;;;;;;;;;;10403850;28;20065;-76
2022/06/11 18:35:25;;;;;;;4.13;2.30;;;;;;;;;;10438010;28;20045;-77
2022/06/11 18:40:31;;;;;;;5.97;2.40;;;;;;;;;;10432042;28;20033;-78
2022/06/11 18:45:35;;;;;;;4.72;2.58;;;;;;;;;;10419155;28;20045;-78
2022/06/11 18:50:40;;;;;;;4.78;2.45;;;;;;;;;;10414149;28;20037;-76
2022/06/11 18:55:43;;;;;;;6.55;3.20;;;;;;;;;;10437586;28;20044;-77
2022/06/11 19:00:47;;;;;;;5.93;3.30;;;;;;;;;;10417585;28;20072;-77
2022/06/11 19:05:51;;;;;;;8.38;4.13;;;;;;;;;;10429396;28;20611;-77
2022/06/11 19:10:54;;;;;;;11.32;4.80;;;;;;;;;;10426778;28;20107;-78
2022/06/11 19:15:58;;;;;;;4.95;2.95;;;;;;;;;;10420560;28;20045;-77
2022/06/11 19:21:03;;;;;;;3.45;2.28;;;;;;;;;;10428728;28;20496;-78
2022/06/11 19:26:08;;;;;;;6.70;3.22;;;;;;;;;;10403639;28;20103;-79
2022/06/11 19:31:13;;;;;;;6.03;3.40;;;;;;;;;;10431495;28;20424;-78
2022/06/11 19:36:23;;;;;;;8.70;4.47;;;;;;;;;;10417413;28;20045;-77
2022/06/11 19:41:26;;;;;;;7.50;3.33;;;;;;;;;;10414302;28;20441;-78
2022/06/11 19:46:29;;;;;;;;;;;;;;;;;;10411408;28;20069;-76
2022/06/11 19:51:34;;;;;;;6.65;3.47;;;;;;;;;;10426299;28;20392;-77
2022/06/11 19:56:39;;;;;;;8.13;4.38;;;;;;;;;;10409762;28;20068;-78
2022/06/11 20:01:42;;;;;;;8.25;3.97;;;;;;;;;;10423212;28;20505;-77
2022/06/11 20:06:47;;;;;;;14.95;7.78;;;;;;;;;;10410059;28;20044;-78
2022/06/11 20:11:51;;;;;;;12.95;7.88;;;;;;;;;;10429610;28;20409;-77
2022/06/11 20:16:54;;;;;;;25.23;11.25;;;;;;;;;;10429268;28;20048;-79
2022/06/11 20:21:59;;;;;;;7.95;4.10;;;;;;;;;;10437519;28;20115;-78
2022/06/11 20:27:02;;;;;;;12.48;5.05;;;;;;;;;;10434355;28;20034;-77
2022/06/11 20:32:10;;;;;;;11.27;6.00;;;;;;;;;;10442857;28;20068;-79
2022/06/11 20:37:14;;;;;;;12.52;5.22;;;;;;;;;;10441362;28;20052;-77
2022/06/11 20:42:17;;;;;;;13.55;6.38;;;;;;;;;;10435349;28;20038;-75
2022/06/11 20:47:22;;;;;;;12.57;5.22;;;;;;;;;;10418975;28;20049;-77
2022/06/11 20:52:26;;;;;;;9.57;5.38;;;;;;;;;;10425248;28;20402;-75
2022/06/11 20:57:30;;;;;;;8.95;4.45;;;;;;;;;;10438334;28;20335;-78
2022/06/11 21:02:33;;;;;;;8.63;3.88;;;;;;;;;;10423037;28;20063;-77
2022/06/11 21:12:58;;;;;;;9.52;4.55;;;;;;;;;;10423817;28;20807;-76
2022/06/11 21:18:01;;;;;;;7.88;3.80;;;;;;;;;;10434206;28;20057;-76
2022/06/11 21:23:07;;;;;;;5.20;3.00;;;;;;;;;;10422418;28;20025;-77
2022/06/11 21:28:12;;;;;;;6.25;3.55;;;;;;;;;;10416211;28;20045;-77
2022/06/11 21:33:16;;;;;;;12.48;5.40;;;;;;;;;;10436062;28;20462;-78
2022/06/11 21:38:22;;;;;;;6.15;3.05;;;;;;;;;;10418163;28;20053;-77
2022/06/11 21:43:25;;;;;;;8.48;3.67;;;;;;;;;;10437386;28;20072;-75
2022/06/11 21:48:31;;;;;;;5.03;3.15;;;;;;;;;;10424004;28;20041;-77
2022/06/11 21:53:35;;;;;;;3.38;2.25;;;;;;;;;;10435735;28;20044;-76
2022/06/11 21:58:38;;;;;;;5.93;2.70;;;;;;;;;;10411548;28;20132;-78
2022/06/11 22:03:41;;;;;;;4.53;2.90;;;;;;;;;;10417759;28;20516;-78
2022/06/11 22:08:45;;;;;;;6.27;3.07;;;;;;;;;;10432895;28;20124;-76
2022/06/11 22:13:49;;;;;;;5.28;2.95;;;;;;;;;;10439803;28;20063;-76
2022/06/11 22:18:53;;;;;;;7.25;3.30;;;;;;;;;;10442705;28;20061;-75
2022/06/11 22:23:57;;;;;;;4.47;2.78;;;;;;;;;;10444406;28;20096;-76
2022/06/11 22:29:00;;;;;;;6.85;2.80;;;;;;;;;;10442703;28;20060;-74
2022/06/11 22:34:04;;;;;;;7.00;2.90;;;;;;;;;;10439804;28;20033;-75
2022/06/11 22:39:08;;;;;;;;;;;;;;;;;;10416879;28;20040;-76
2022/06/11 22:44:13;;;;;;;4.57;2.87;;;;;;;;;;10430448;28;20393;-77
2022/06/11 22:49:17;;;;;;;4.80;3.13;;;;;;;;;;10435817;28;20344;-77
2022/06/11 22:54:20;;;;;;;5.27;2.97;;;;;;;;;;10415512;28;20140;-76
2022/06/11 22:59:24;;;;;;;5.88;3.17;;;;;;;;;;10439345;28;20477;-77
2022/06/11 23:04:28;;;;;;;6.35;3.20;;;;;;;;;;10430564;28;20036;-78
2022/06/11 23:09:30;;;;;;;4.87;3.50;;;;;;;;;;10430617;28;20045;-76
2022/06/11 23:14:35;;;;;;;7.30;3.72;;;;;;;;;;10430788;28;20303;-77
2022/06/11 23:19:38;;;;;;;6.93;3.25;;;;;;;;;;10415282;28;20529;-75
2022/06/11 23:24:42;;;;;;;2.85;1.45;;;;;;;;;;10433557;28;20132;-78
2022/06/11 23:29:46;;;;;;;5.53;3.25;;;;;;;;;;10427967;28;20065;-77
2022/06/11 23:34:49;;;;;;;7.43;3.90;;;;;;;;;;10412546;28;20037;-76
2022/06/11 23:39:51;;;;;;;8.80;3.13;;;;;;;;;;10431610;28;20045;-76
2022/06/11 23:50:16;;;;;;;4.13;2.83;;;;;;;;;;10409087;28;20123;-73
2022/06/11 23:55:19;;;;;;;9.20;3.75;;;;;;;;;;10432958;28;20033;-76
